Webcam & Weather

This webcam image will automatically refresh every 15 seconds.


METAR and TAF for EGLL Heathrow (12 Nautical Miles East of White Waltham)

Available data for EGLL from the past hour
LONDON/HEATHROW
Metar
EGLL 191850Z AUTO 03004KT 340V080 9999 NCD 17/09 Q1010 NOSIG

18:50 UTC

Wind: 30° 4kt

Visibility: 9999 m

Sky:

Temp: 17 deg C / 62.6 deg F

Dewpoint: 9 deg C / 48.2 deg F

Pressure: 1010 hPa

TAF
TAF EGLL 191653Z 1918/2024 04004KT 9999 SCT030 PROB30 TEMPO 1918/1920 7000 SHRA BECMG 1922/2001 8000 PROB30 TEMPO 2002/2007 4000 BR BKN005 BECMG 2007/2010 9999 PROB30 TEMPO 2007/2010 BKN012 TEMPO 2011/2020 6000 SHRA PROB30 TEMPO 2012/2018 3000 +SHRA BKN014CB

Play 24 hour timelapse | Play 30 day timelapse

Comments are closed.